Time;durP1;ratioP1;P1;durP2;ratioP2;P2;SDS_P1;SDS_P2;PMS_P1;PMS_P2;Temp;Humidity;BMP_temperature;BMP_pressure;BME280_temperature;BME280_humidity;BME280_pressure;Samples;Min_cycle;Max_cycle;Signal;HPM_P1;HPM_P2
2020/12/07 00:01:59;;;;;;;5.65;1.50;;;25.60;40.20;;;;;;4153838;28;20049;-43
2020/12/07 00:04:01;;;;;;;3.92;1.60;;;25.70;40.20;;;;;;4155030;28;20045;-47
2020/12/07 00:06:03;;;;;;;4.32;1.80;;;25.70;40.10;;;;;;4152396;28;20078;-49
2020/12/07 00:08:05;;;;;;;5.10;1.73;;;25.70;40.10;;;;;;4157358;28;20391;-49
2020/12/07 00:10:08;;;;;;;3.08;1.83;;;25.70;40.00;;;;;;4151439;28;20628;-50
2020/12/07 00:12:10;;;;;;;3.17;1.40;;;25.70;39.90;;;;;;4153055;28;20037;-45
2020/12/07 00:14:12;;;;;;;4.43;1.98;;;25.70;39.90;;;;;;4151853;28;20068;-46
2020/12/07 00:16:14;;;;;;;2.90;1.50;;;25.70;40.00;;;;;;4156466;28;20103;-47
2020/12/07 00:18:16;;;;;;;3.85;1.77;;;25.70;39.90;;;;;;4147765;28;20022;-46
2020/12/07 00:20:19;;;;;;;3.50;1.50;;;25.70;39.90;;;;;;4153535;28;20453;-48
2020/12/07 00:22:31;;;;;;;2.60;1.53;;;25.70;39.80;;;;;;4162621;28;20355;-50
2020/12/07 00:24:33;;;;;;;5.93;1.60;;;25.80;39.90;;;;;;4151583;28;20339;-50
2020/12/07 00:26:35;;;;;;;2.85;1.50;;;25.70;39.80;;;;;;4154246;28;20037;-44
2020/12/07 00:28:40;;;;;;;6.00;1.93;;;25.70;39.80;;;;;;4151993;28;20045;-49
2020/12/07 00:30:43;;;;;;;4.80;1.67;;;25.70;39.60;;;;;;4157941;28;20491;-49
2020/12/07 00:32:45;;;;;;;4.90;1.50;;;25.70;39.70;;;;;;4149567;28;20033;-47
2020/12/07 00:34:48;;;;;;;3.97;1.70;;;25.80;39.80;;;;;;4153130;28;20036;-46
2020/12/07 00:36:50;;;;;;;2.95;1.60;;;25.70;39.70;;;;;;4153156;28;20056;-49
2020/12/07 00:38:52;;;;;;;5.50;2.25;;;25.80;39.90;;;;;;4154770;28;20025;-51
2020/12/07 00:40:54;;;;;;;3.80;1.80;;;25.80;39.70;;;;;;4157949;28;20473;-46
2020/12/07 00:42:56;;;;;;;5.78;1.80;;;25.80;39.70;;;;;;4153886;28;20724;-46
2020/12/07 00:44:59;;;;;;;4.55;1.85;;;25.80;39.80;;;;;;4157082;28;20047;-47
2020/12/07 00:47:01;;;;;;;3.33;1.42;;;25.80;39.70;;;;;;4153457;28;20573;-46
2020/12/07 00:49:03;;;;;;;3.63;1.50;;;25.80;39.80;;;;;;4152139;28;20114;-49
2020/12/07 00:51:06;;;;;;;3.28;1.48;;;25.80;39.70;;;;;;4154015;28;20065;-51
2020/12/07 00:53:08;;;;;;;3.90;1.65;;;25.80;39.70;;;;;;4154808;28;20530;-51
2020/12/07 00:55:10;;;;;;;3.50;1.65;;;25.80;39.80;;;;;;4153004;28;20388;-46
2020/12/07 00:57:12;;;;;;;5.05;1.73;;;25.80;39.60;;;;;;4152740;28;20052;-49
2020/12/07 00:59:14;;;;;;;4.80;1.80;;;25.80;39.70;;;;;;4156106;28;20096;-47
2020/12/07 01:01:16;;;;;;;4.10;1.60;;;25.80;39.70;;;;;;4153240;28;20044;-46
2020/12/07 01:03:18;;;;;;;3.38;1.65;;;25.80;39.60;;;;;;4152473;28;20041;-44
2020/12/07 01:05:20;;;;;;;4.20;1.63;;;25.90;39.70;;;;;;4155103;28;20021;-45
2020/12/07 01:07:22;;;;;;;5.05;1.63;;;25.90;39.40;;;;;;4152511;28;20041;-45
2020/12/07 01:09:24;;;;;;;4.22;2.00;;;25.90;39.60;;;;;;4150697;28;20033;-47
2020/12/07 01:11:26;;;;;;;3.70;1.50;;;25.90;39.70;;;;;;4159533;28;20432;-45
2020/12/07 01:13:28;;;;;;;2.70;1.52;;;25.90;39.50;;;;;;4156250;28;20092;-43
2020/12/07 01:15:30;;;;;;;4.78;1.88;;;25.90;39.60;;;;;;4155221;28;20049;-45
2020/12/07 01:17:33;;;;;;;4.82;1.60;;;25.90;39.30;;;;;;4153809;28;20076;-46
2020/12/07 01:19:35;;;;;;;4.00;1.45;;;25.90;39.30;;;;;;4159812;28;20558;-46
2020/12/07 01:21:38;;;;;;;3.45;1.40;;;25.90;39.00;;;;;;4150164;28;20049;-48
2020/12/07 01:23:40;;;;;;;3.40;1.88;;;25.90;39.20;;;;;;4153509;28;20212;-44
2020/12/07 01:25:42;;;;;;;3.75;1.80;;;26.00;39.20;;;;;;4157192;28;20033;-45
2020/12/07 01:27:45;;;;;;;4.63;1.60;;;25.90;38.90;;;;;;4157322;28;20467;-44
2020/12/07 01:29:50;;;;;;;3.28;1.40;;;26.00;39.10;;;;;;4155601;28;20030;-45
2020/12/07 01:31:52;;;;;;;3.28;1.77;;;26.00;39.10;;;;;;4157146;28;20036;-43
2020/12/07 01:33:54;;;;;;;4.35;1.63;;;26.00;39.00;;;;;;4158952;28;20206;-45
2020/12/07 01:35:56;;;;;;;3.78;1.38;;;26.00;39.00;;;;;;4154376;28;20036;-45
2020/12/07 01:37:58;;;;;;;3.75;1.80;;;26.00;39.00;;;;;;4157963;28;20078;-46
2020/12/07 01:40:00;;;;;;;2.30;1.30;;;26.00;38.80;;;;;;4154134;28;20053;-44
2020/12/07 01:42:03;;;;;;;2.95;1.15;;;26.10;38.90;;;;;;4156986;28;20036;-45
2020/12/07 01:44:05;;;;;;;1.95;1.15;;;26.00;38.60;;;;;;4155970;28;20029;-43
2020/12/07 01:46:07;;;;;;;3.67;1.48;;;25.90;38.40;;;;;;4154581;28;20045;-51
2020/12/07 01:48:09;;;;;;;1.65;1.27;;;25.70;38.40;;;;;;4152771;28;20121;-48
2020/12/07 01:50:11;;;;;;;3.53;1.55;;;25.60;38.60;;;;;;4160791;28;20041;-50
2020/12/07 01:52:14;;;;;;;3.47;1.52;;;25.60;38.80;;;;;;4151078;28;20439;-49
2020/12/07 01:54:16;;;;;;;1.95;1.23;;;25.60;38.90;;;;;;4159572;28;20127;-46
2020/12/07 01:56:27;;;;;;;3.70;1.55;;;25.60;38.90;;;;;;4156411;28;20112;-50
2020/12/07 01:58:29;;;;;;;2.28;1.17;;;25.70;38.70;;;;;;4154733;28;20533;-48
2020/12/07 02:00:31;;;;;;;2.83;1.25;;;25.70;38.80;;;;;;4150816;28;20037;-50
2020/12/07 02:02:34;;;;;;;2.97;1.42;;;25.70;38.80;;;;;;4154218;28;20069;-52
2020/12/07 02:04:36;;;;;;;4.90;1.42;;;25.70;38.70;;;;;;4156643;28;20476;-51
2020/12/07 02:06:38;;;;;;;3.13;1.50;;;25.80;38.60;;;;;;4155951;28;20506;-46
2020/12/07 02:08:40;;;;;;;2.55;1.60;;;25.80;38.40;;;;;;4160067;28;20344;-50
2020/12/07 02:10:44;;;;;;;3.88;1.45;;;25.90;38.50;;;;;;4158130;28;21534;-50
2020/12/07 02:12:45;;;;;;;;;;;25.90;38.50;;;;;;4159531;28;20123;-47
2020/12/07 02:14:47;;;;;;;1.60;1.00;;;25.90;38.40;;;;;;4159207;28;19920;-51
2020/12/07 02:16:49;;;;;;;4.93;1.48;;;25.90;38.30;;;;;;4154106;28;20324;-51
2020/12/07 02:18:57;;;;;;;4.80;1.42;;;25.90;38.30;;;;;;4160585;28;20060;-50
2020/12/07 02:23:56;;;;;;;4.55;1.75;;;26.00;38.40;;;;;;4152587;28;20513;-51
2020/12/07 02:25:58;;;;;;;2.92;1.40;;;26.00;38.40;;;;;;4163478;28;20029;-48
2020/12/07 02:28:00;;;;;;;3.92;1.40;;;26.00;38.30;;;;;;4159149;28;20229;-45
2020/12/07 02:30:03;;;;;;;4.88;1.45;;;26.00;38.30;;;;;;4163594;28;20024;-52
2020/12/07 02:32:16;;;;;;;3.50;1.38;;;26.10;38.30;;;;;;4155229;28;20037;-50
2020/12/07 02:34:18;;;;;;;4.40;1.90;;;26.10;38.40;;;;;;4154562;28;20077;-49
2020/12/07 02:36:20;;;;;;;5.97;1.60;;;26.10;38.40;;;;;;4153817;28;20033;-45
2020/12/07 02:38:22;;;;;;;3.08;1.30;;;26.10;38.30;;;;;;4156006;28;20037;-48
2020/12/07 02:40:27;;;;;;;3.45;1.52;;;26.20;38.40;;;;;;4155909;28;20057;-44
2020/12/07 02:42:32;;;;;;;4.60;1.85;;;26.10;38.20;;;;;;4150661;28;20046;-49
2020/12/07 02:44:34;;;;;;;2.88;1.60;;;26.20;38.30;;;;;;4160686;28;20037;-44
2020/12/07 02:46:36;;;;;;;2.13;1.20;;;26.20;38.20;;;;;;4153523;28;20037;-45
2020/12/07 02:48:38;;;;;;;3.15;1.10;;;26.20;38.20;;;;;;4161109;28;20064;-50
2020/12/07 02:54:32;;;;;;;1.65;1.13;;;26.20;38.20;;;;;;4160577;28;20040;-53
2020/12/07 02:56:34;;;;;;;2.92;1.20;;;26.30;38.30;;;;;;4156126;28;20106;-50
2020/12/07 02:58:36;;;;;;;3.47;1.20;;;26.30;38.20;;;;;;4156240;28;20030;-52
2020/12/07 03:00:38;;;;;;;4.57;1.63;;;26.30;38.10;;;;;;4161242;28;20082;-51
2020/12/07 03:02:41;;;;;;;2.25;1.10;;;26.30;38.20;;;;;;4153541;28;20436;-50
2020/12/07 03:04:43;;;;;;;4.47;1.45;;;26.40;38.20;;;;;;4160157;28;20124;-49
2020/12/07 03:06:45;;;;;;;2.97;1.60;;;26.40;38.20;;;;;;4154548;28;21466;-53
2020/12/07 03:08:47;;;;;;;3.72;1.40;;;26.40;38.20;;;;;;4159288;28;20037;-50
2020/12/07 03:10:49;;;;;;;3.53;1.45;;;26.40;38.20;;;;;;4152290;28;20068;-52
2020/12/07 03:12:51;;;;;;;3.45;1.35;;;26.40;38.20;;;;;;4153735;28;20041;-50
2020/12/07 03:14:53;;;;;;;3.22;1.60;;;26.50;38.30;;;;;;4159433;28;20031;-51
2020/12/07 03:16:55;;;;;;;4.47;1.73;;;26.50;38.30;;;;;;4155634;28;20097;-49
2020/12/07 03:18:57;;;;;;;5.07;1.35;;;26.50;38.20;;;;;;4156845;28;20037;-47
2020/12/07 03:20:59;;;;;;;3.95;1.50;;;26.50;38.20;;;;;;4152766;28;20032;-52
2020/12/07 03:23:01;;;;;;;2.88;1.42;;;26.60;38.30;;;;;;4153050;28;20044;-49
2020/12/07 03:25:04;;;;;;;4.25;1.10;;;26.60;38.30;;;;;;4152292;28;20598;-49
2020/12/07 03:27:06;;;;;;;3.20;1.55;;;26.60;38.30;;;;;;4153560;28;20064;-48
2020/12/07 03:29:08;;;;;;;4.68;1.40;;;26.60;38.30;;;;;;4158040;28;20025;-48
2020/12/07 03:31:11;;;;;;;3.83;1.35;;;26.70;38.30;;;;;;4150365;28;20097;-46
2020/12/07 03:33:13;;;;;;;3.40;1.55;;;26.70;38.30;;;;;;4147200;28;20091;-46
2020/12/07 03:35:15;;;;;;;4.13;2.28;;;26.70;38.20;;;;;;4150454;28;20021;-50
2020/12/07 03:37:17;;;;;;;4.22;2.22;;;26.70;38.30;;;;;;4154855;28;20044;-48
2020/12/07 03:39:19;;;;;;;2.85;1.55;;;26.70;38.20;;;;;;4152076;28;20072;-52
2020/12/07 03:41:22;;;;;;;2.28;1.33;;;26.70;38.20;;;;;;4153515;28;20037;-46
2020/12/07 03:43:24;;;;;;;4.55;1.35;;;26.80;38.20;;;;;;4151942;28;20044;-49
2020/12/07 03:45:26;;;;;;;3.33;1.52;;;26.80;38.20;;;;;;4152862;28;20570;-49
2020/12/07 03:47:28;;;;;;;4.85;2.10;;;26.80;38.10;;;;;;4150629;28;20320;-52
2020/12/07 03:49:30;;;;;;;5.30;2.30;;;26.80;38.10;;;;;;4153541;28;20045;-47
2020/12/07 03:51:32;;;;;;;5.38;2.47;;;26.90;38.20;;;;;;4150851;28;20068;-51
2020/12/07 03:53:37;;;;;;;4.88;2.17;;;26.90;38.20;;;;;;4155504;28;20031;-51
2020/12/07 03:55:39;;;;;;;6.57;2.70;;;26.90;38.10;;;;;;4146104;28;20136;-49
2020/12/07 03:57:41;;;;;;;8.50;3.03;;;27.00;38.10;;;;;;4149337;28;20049;-46
2020/12/07 03:59:43;;;;;;;5.13;2.90;;;27.00;38.00;;;;;;4153161;28;20033;-45
2020/12/07 04:01:52;;;;;;;4.82;2.50;;;27.10;38.20;;;;;;4156907;28;20072;-47
2020/12/07 04:04:00;;;;;;;5.05;3.00;;;27.10;38.10;;;;;;4172525;28;20032;-49
2020/12/07 04:08:23;;;;;;;5.53;2.80;;;27.20;38.00;;;;;;4150969;28;20037;-50
2020/12/07 04:10:25;;;;;;;5.53;3.08;;;27.20;37.90;;;;;;4155625;28;20459;-46
2020/12/07 04:12:27;;;;;;;5.18;2.97;;;27.30;37.90;;;;;;4156567;28;20083;-49
2020/12/07 04:14:29;;;;;;;7.78;3.72;;;27.40;37.90;;;;;;4156974;28;20505;-50
2020/12/07 04:16:31;;;;;;;4.25;2.88;;;27.40;37.60;;;;;;4152722;28;20771;-49
2020/12/07 04:18:33;;;;;;;3.70;2.10;;;27.40;37.60;;;;;;4154883;28;20041;-51
2020/12/07 04:20:35;;;;;;;5.50;3.08;;;27.50;37.50;;;;;;4153232;28;20034;-52
2020/12/07 04:22:37;;;;;;;3.05;1.83;;;27.50;37.50;;;;;;4156230;28;20522;-51
2020/12/07 04:24:39;;;;;;;4.18;2.25;;;27.60;37.60;;;;;;4151871;28;20048;-52
2020/12/07 04:26:41;;;;;;;4.63;2.10;;;27.60;37.60;;;;;;4153664;28;20403;-49
2020/12/07 04:28:44;;;;;;;3.60;2.10;;;27.70;37.60;;;;;;4153331;28;20398;-47
2020/12/07 04:30:46;;;;;;;4.57;2.80;;;27.70;37.50;;;;;;4153585;28;20357;-46
2020/12/07 04:32:48;;;;;;;3.95;2.25;;;27.80;37.60;;;;;;4155866;28;20051;-50
2020/12/07 04:34:50;;;;;;;3.92;2.40;;;27.90;37.50;;;;;;4156524;28;20128;-48
2020/12/07 04:36:56;;;;;;;4.05;2.47;;;27.90;37.40;;;;;;4162051;28;20554;-47
2020/12/07 04:38:58;;;;;;;4.78;2.28;;;28.00;37.40;;;;;;4161463;28;20052;-46
2020/12/07 04:41:03;;;;;;;4.03;2.40;;;28.10;37.40;;;;;;4165615;28;20037;-47
2020/12/07 04:43:05;;;;;;;3.15;2.25;;;28.10;37.40;;;;;;4160623;28;20521;-46
2020/12/07 04:45:09;;;;;;;5.22;2.30;;;28.20;37.40;;;;;;4165322;28;20075;-46
2020/12/07 04:47:19;;;;;;;4.60;2.60;;;28.20;37.30;;;;;;4170462;28;20459;-47
2020/12/07 04:49:22;;;;;;;3.97;2.47;;;28.30;37.30;;;;;;4165168;28;20057;-52
2020/12/07 04:51:24;;;;;;;4.65;2.70;;;28.40;37.20;;;;;;4165855;28;20037;-50
2020/12/07 04:53:27;;;;;;;3.53;2.25;;;28.40;37.10;;;;;;4161140;28;20033;-49
2020/12/07 04:55:29;;;;;;;4.65;2.53;;;28.50;37.10;;;;;;4152511;28;20071;-49
2020/12/07 04:57:32;;;;;;;4.70;2.05;;;28.60;37.10;;;;;;4152363;28;20471;-48
2020/12/07 04:59:40;;;;;;;3.78;2.42;;;28.70;37.00;;;;;;4153043;28;20456;-51
2020/12/07 05:01:42;;;;;;;3.95;2.33;;;28.70;36.90;;;;;;4149093;28;20099;-50
2020/12/07 05:03:44;;;;;;;4.03;2.25;;;28.80;36.90;;;;;;4158379;28;20507;-48
2020/12/07 05:05:53;;;;;;;4.40;2.45;;;28.90;36.90;;;;;;4148575;28;22675;-52
2020/12/07 05:07:57;;;;;;;4.43;2.50;;;28.90;36.70;;;;;;4159395;28;20561;-50
2020/12/07 05:10:06;;;;;;;3.83;2.30;;;29.00;36.70;;;;;;4155356;28;20033;-49
2020/12/07 05:12:24;;;;;;;3.75;2.20;;;29.00;36.60;;;;;;4152272;28;20045;-49
2020/12/07 05:14:26;;;;;;;4.40;2.90;;;29.10;36.60;;;;;;4161016;28;20048;-48
2020/12/07 05:16:29;;;;;;;4.50;2.55;;;29.20;36.50;;;;;;4150845;28;20184;-50
2020/12/07 05:18:34;;;;;;;;;;;29.30;36.40;;;;;;4160070;28;20124;-46
2020/12/07 05:20:36;;;;;;;4.80;2.65;;;29.30;36.40;;;;;;4151829;28;20318;-47
2020/12/07 05:22:40;;;;;;;5.13;2.65;;;29.40;36.30;;;;;;4157627;28;20061;-47
2020/12/07 05:24:47;;;;;;;5.28;2.45;;;29.40;36.20;;;;;;4154505;28;20373;-54
2020/12/07 05:26:50;;;;;;;4.45;2.50;;;29.50;36.20;;;;;;4149815;28;20035;-51
2020/12/07 05:29:02;;;;;;;5.25;2.35;;;29.60;36.10;;;;;;4152918;28;20018;-51
2020/12/07 05:31:04;;;;;;;3.90;2.28;;;29.60;36.70;;;;;;4150247;28;20095;-50
2020/12/07 05:33:06;;;;;;;5.38;2.40;;;29.70;36.00;;;;;;4155024;28;20037;-46
2020/12/07 05:35:09;;;;;;;4.53;2.33;;;29.70;35.90;;;;;;4157771;28;20343;-49
2020/12/07 05:37:11;;;;;;;5.47;2.87;;;29.80;35.90;;;;;;4150311;28;20416;-46
2020/12/07 05:39:13;;;;;;;4.13;2.30;;;29.90;35.90;;;;;;4154254;28;20502;-49
2020/12/07 05:41:16;;;;;;;;;;;29.90;35.80;;;;;;4152388;28;20089;-50
2020/12/07 05:43:20;;;;;;;3.75;2.42;;;30.00;35.80;;;;;;4150823;28;20162;-52
2020/12/07 05:45:24;;;;;;;4.28;2.40;;;30.10;35.80;;;;;;4154850;28;20049;-50
2020/12/07 05:47:26;;;;;;;6.63;2.55;;;30.10;35.70;;;;;;4157088;28;20033;-50
2020/12/07 05:49:30;;;;;;;5.25;2.58;;;30.20;35.60;;;;;;4148612;28;20478;-50
2020/12/07 05:51:33;;;;;;;4.25;2.33;;;30.30;35.60;;;;;;4155889;28;20034;-51
2020/12/07 05:53:36;;;;;;;;;;;30.30;35.50;;;;;;4161590;28;20057;-50
2020/12/07 05:55:38;;;;;;;3.58;2.40;;;30.40;35.50;;;;;;4150721;28;20365;-53
2020/12/07 05:57:48;;;;;;;5.15;2.35;;;30.50;35.40;;;;;;4157604;28;20033;-48
2020/12/07 05:59:56;;;;;;;4.45;2.35;;;30.50;35.30;;;;;;4151028;28;20524;-48
2020/12/07 06:02:03;;;;;;;4.30;2.20;;;30.60;35.30;;;;;;4150702;28;20583;-46
2020/12/07 06:04:06;;;;;;;3.45;1.90;;;30.70;35.40;;;;;;4145438;28;20118;-49
2020/12/07 06:06:08;;;;;;;4.43;2.20;;;30.70;35.20;;;;;;4152514;28;20049;-49
2020/12/07 06:08:13;;;;;;;3.72;2.00;;;30.80;35.20;;;;;;4156294;28;20620;-47
2020/12/07 06:10:17;;;;;;;5.13;2.40;;;30.80;35.10;;;;;;4152742;28;20739;-50
2020/12/07 06:12:30;;;;;;;4.57;2.22;;;30.90;35.20;;;;;;4159086;28;20037;-49
2020/12/07 06:14:33;;;;;;;4.10;2.10;;;31.00;35.20;;;;;;4153589;28;20402;-53
2020/12/07 06:16:38;;;;;;;3.67;1.90;;;31.00;35.10;;;;;;4151665;28;21986;-50
2020/12/07 06:18:45;;;;;;;4.05;1.95;;;31.10;34.90;;;;;;4151139;28;20040;-50
2020/12/07 06:20:47;;;;;;;4.10;2.08;;;31.10;34.90;;;;;;4156711;28;20033;-52
2020/12/07 06:22:55;;;;;;;5.00;2.25;;;31.20;35.00;;;;;;4157494;28;20095;-53
2020/12/07 06:25:02;;;;;;;3.30;1.90;;;31.20;34.80;;;;;;4155923;28;20038;-50
2020/12/07 06:27:06;;;;;;;6.63;2.80;;;31.30;34.80;;;;;;4155493;28;20033;-52
2020/12/07 06:29:08;;;;;;;3.55;2.10;;;31.30;34.80;;;;;;4152662;28;20494;-53
2020/12/07 06:31:13;;;;;;;3.80;1.98;;;31.40;34.90;;;;;;4153900;28;20037;-51
2020/12/07 06:33:15;;;;;;;3.80;2.15;;;31.40;34.70;;;;;;4155337;28;20304;-50
2020/12/07 06:35:19;;;;;;;3.55;1.85;;;31.50;34.70;;;;;;4160584;28;20049;-51
2020/12/07 06:37:25;;;;;;;3.40;1.65;;;31.50;34.60;;;;;;4154992;28;20041;-51
2020/12/07 06:39:40;;;;;;;4.03;2.00;;;31.60;34.60;;;;;;4157715;28;20410;-51
2020/12/07 06:41:45;;;;;;;3.38;1.88;;;31.60;34.60;;;;;;4156667;28;20018;-48
2020/12/07 06:43:58;;;;;;;5.35;1.63;;;31.60;34.70;;;;;;4157533;28;20088;-48
2020/12/07 06:46:00;;;;;;;4.13;2.00;;;31.60;34.70;;;;;;4155505;28;20045;-48
2020/12/07 06:48:23;;;;;;;4.10;2.05;;;31.70;34.70;;;;;;4156546;28;20119;-52
2020/12/07 06:50:29;;;;;;;3.90;2.53;;;31.70;34.60;;;;;;4161610;28;20028;-50
2020/12/07 06:52:36;;;;;;;6.38;2.45;;;31.70;34.60;;;;;;4154010;28;20790;-52
2020/12/07 06:55:07;;;;;;;4.22;2.45;;;31.80;34.60;;;;;;4159733;28;20037;-48
2020/12/07 06:57:27;;;;;;;4.13;2.42;;;31.80;34.70;;;;;;4154585;28;20030;-52
2020/12/07 06:59:29;;;;;;;5.53;2.97;;;31.80;34.70;;;;;;4153253;28;20032;-49
2020/12/07 07:01:31;;;;;;;6.30;3.40;;;31.80;34.80;;;;;;4150878;28;20492;-52
2020/12/07 07:03:33;;;;;;;8.20;4.17;;;31.80;34.80;;;;;;4154152;28;20724;-52
2020/12/07 07:05:35;;;;;;;7.10;3.97;;;31.80;34.80;;;;;;4153910;28;20281;-49
2020/12/07 07:07:38;;;;;;;8.47;4.40;;;31.80;34.80;;;;;;4155120;28;20041;-48
2020/12/07 07:09:41;;;;;;;6.70;3.97;;;31.80;34.90;;;;;;4152899;28;20378;-48
2020/12/07 07:11:43;;;;;;;7.70;4.60;;;31.80;34.90;;;;;;4148235;28;20105;-57
2020/12/07 07:13:51;;;;;;;7.50;3.90;;;31.80;35.00;;;;;;4149687;28;20065;-51
2020/12/07 07:15:55;;;;;;;8.13;4.43;;;31.70;34.90;;;;;;4150100;28;20079;-52
2020/12/07 07:17:58;;;;;;;9.77;4.93;;;31.80;35.10;;;;;;4151181;28;20127;-52
2020/12/07 07:20:02;;;;;;;8.00;3.88;;;31.70;35.10;;;;;;4153004;28;20025;-51
2020/12/07 07:22:04;;;;;;;6.90;4.43;;;31.70;35.10;;;;;;4151863;28;20056;-51
2020/12/07 07:24:07;;;;;;;6.88;4.20;;;31.60;35.40;;;;;;4156730;28;20069;-50
2020/12/07 07:26:22;;;;;;;7.57;4.47;;;31.60;35.40;;;;;;4156798;28;20018;-52
2020/12/07 07:28:28;;;;;;;7.47;4.40;;;31.60;35.50;;;;;;4150979;28;20045;-53
2020/12/07 07:30:31;;;;;;;7.82;4.72;;;31.60;35.70;;;;;;4154296;28;20049;-47
2020/12/07 07:32:33;;;;;;;;;;;31.60;35.80;;;;;;4150944;28;20481;-52
2020/12/07 07:34:35;;;;;;;6.95;4.72;;;31.50;35.80;;;;;;4155872;28;19978;-52
2020/12/07 07:36:38;;;;;;;7.63;4.88;;;31.50;35.90;;;;;;4148871;28;20402;-52
2020/12/07 07:38:40;;;;;;;6.93;4.47;;;31.50;35.90;;;;;;4154677;28;20499;-49
2020/12/07 07:40:42;;;;;;;9.30;4.93;;;31.50;35.80;;;;;;4152943;28;20044;-56
2020/12/07 07:42:50;;;;;;;7.70;4.43;;;31.50;35.90;;;;;;4154397;28;20310;-53
2020/12/07 07:44:53;;;;;;;7.68;4.95;;;31.40;35.80;;;;;;4147606;28;20311;-51
2020/12/07 07:46:58;;;;;;;7.72;4.45;;;31.40;35.70;;;;;;4152087;28;20033;-51
2020/12/07 07:49:21;;;;;;;6.20;4.57;;;31.30;35.60;;;;;;4149326;28;20585;-51
2020/12/07 08:15:48;;;;;;;6.25;4.78;;;31.00;36.40;;;;;;4133159;28;20331;-48
2020/12/07 08:17:52;;;;;;;7.10;4.78;;;31.00;36.40;;;;;;4145294;28;20037;-50
2020/12/07 08:20:12;;;;;;;7.82;5.10;;;30.90;36.40;;;;;;4146369;28;20037;-52
2020/12/07 08:22:17;;;;;;;7.82;5.20;;;30.90;36.50;;;;;;4157087;28;20543;-53
2020/12/07 08:24:19;;;;;;;7.43;5.72;;;30.80;36.50;;;;;;4162017;28;20475;-48
2020/12/07 08:26:21;;;;;;;7.20;5.73;;;30.80;36.50;;;;;;4149694;28;20018;-49
2020/12/07 08:28:42;;;;;;;8.55;6.20;;;30.80;36.50;;;;;;4155480;28;20282;-51
2020/12/07 08:31:09;;;;;;;8.15;6.05;;;30.80;36.60;;;;;;4157984;28;20030;-52
2020/12/07 08:33:12;;;;;;;8.32;6.25;;;30.80;36.70;;;;;;4155751;28;20064;-50
2020/12/07 08:35:14;;;;;;;7.07;5.78;;;30.80;36.70;;;;;;4155223;28;20033;-51
2020/12/07 08:37:17;;;;;;;7.78;5.53;;;30.70;36.70;;;;;;4153886;28;20052;-54
2020/12/07 08:39:19;;;;;;;9.15;5.90;;;30.70;36.70;;;;;;4142216;28;20121;-51
2020/12/07 08:41:31;;;;;;;7.00;5.30;;;30.60;36.70;;;;;;4145540;28;20437;-52
2020/12/07 08:43:34;;;;;;;9.13;5.55;;;30.60;36.70;;;;;;4153060;28;20061;-51
2020/12/07 08:45:36;;;;;;;6.75;5.20;;;30.60;36.80;;;;;;4155574;28;20041;-52
2020/12/07 08:47:38;;;;;;;6.90;5.00;;;30.60;36.70;;;;;;4155214;28;20029;-50
2020/12/07 08:49:48;;;;;;;8.80;5.07;;;30.50;36.90;;;;;;4146045;28;20056;-54
2020/12/07 08:51:52;;;;;;;5.93;5.00;;;30.60;36.80;;;;;;4155031;28;20117;-50
2020/12/07 08:53:55;;;;;;;5.55;4.95;;;30.50;36.70;;;;;;4155083;28;20785;-48
2020/12/07 08:55:58;;;;;;;5.45;4.80;;;30.50;36.80;;;;;;4151312;28;20314;-50
2020/12/07 08:58:00;;;;;;;5.85;4.72;;;30.50;36.70;;;;;;4150285;28;20034;-52
2020/12/07 09:00:03;;;;;;;6.10;4.57;;;30.50;36.80;;;;;;4151182;28;20090;-54
2020/12/07 09:02:05;;;;;;;5.82;4.25;;;30.50;36.90;;;;;;4153307;28;20049;-51
2020/12/07 09:04:10;;;;;;;6.03;4.50;;;30.40;36.70;;;;;;4148880;28;20041;-53
2020/12/07 09:06:13;;;;;;;6.70;4.57;;;30.40;36.80;;;;;;4152613;28;20680;-53
2020/12/07 09:08:15;;;;;;;5.38;3.92;;;30.40;36.80;;;;;;4154523;28;20139;-48
2020/12/07 09:10:17;;;;;;;5.40;3.77;;;30.40;36.90;;;;;;4151533;28;20139;-54
2020/12/07 09:12:20;;;;;;;4.90;4.05;;;30.40;37.00;;;;;;4146308;28;20812;-52
2020/12/07 09:14:22;;;;;;;4.80;3.50;;;30.40;37.00;;;;;;4153974;28;20047;-54
2020/12/07 09:16:24;;;;;;;5.00;3.67;;;30.30;36.90;;;;;;4146935;28;20137;-51
2020/12/07 09:18:27;;;;;;;5.03;3.37;;;30.30;37.00;;;;;;4151309;28;20290;-53
2020/12/07 09:20:28;;;;;;;;;;;30.30;37.00;;;;;;4153050;28;20037;-52
2020/12/07 09:22:30;;;;;;;3.95;3.47;;;30.20;37.00;;;;;;4149828;28;20011;-52
2020/12/07 09:24:32;;;;;;;4.53;3.60;;;30.20;37.00;;;;;;4157011;28;20073;-53
2020/12/07 09:26:36;;;;;;;3.93;3.23;;;30.20;37.10;;;;;;4160782;28;21089;-52
2020/12/07 09:28:38;;;;;;;3.90;2.90;;;30.20;37.00;;;;;;4168683;28;20049;-48
2020/12/07 09:30:42;;;;;;;4.97;3.23;;;30.20;37.10;;;;;;4160574;28;20076;-50
2020/12/07 09:32:44;;;;;;;4.22;2.70;;;30.20;37.20;;;;;;4157723;28;20115;-52
2020/12/07 09:34:46;;;;;;;3.20;2.67;;;30.20;37.10;;;;;;4158339;28;20599;-51
2020/12/07 09:36:48;;;;;;;4.90;2.87;;;30.10;37.10;;;;;;4161394;28;20462;-49
2020/12/07 09:38:50;;;;;;;3.40;2.40;;;30.10;37.10;;;;;;4164972;28;20048;-50
2020/12/07 09:40:53;;;;;;;3.53;2.30;;;30.10;37.10;;;;;;4163885;28;20134;-50
2020/12/07 09:42:55;;;;;;;3.85;2.60;;;30.10;37.10;;;;;;4163825;28;20544;-54
2020/12/07 09:44:57;;;;;;;3.20;2.33;;;30.10;37.20;;;;;;4165041;28;20027;-50
2020/12/07 09:46:59;;;;;;;3.05;2.40;;;30.10;37.20;;;;;;4166164;28;20302;-53
2020/12/07 09:49:02;;;;;;;5.50;2.43;;;30.00;37.20;;;;;;4167750;28;20069;-55
2020/12/07 09:51:04;;;;;;;3.87;2.37;;;30.00;37.10;;;;;;4168944;28;20040;-52
2020/12/07 09:53:08;;;;;;;2.27;1.80;;;30.00;37.20;;;;;;4170237;28;20033;-51
2020/12/07 09:55:10;;;;;;;3.08;1.88;;;30.00;37.20;;;;;;4171482;28;20262;-51
2020/12/07 09:57:12;;;;;;;3.10;2.23;;;30.00;37.30;;;;;;4162640;28;20064;-51
2020/12/07 09:59:14;;;;;;;2.63;1.90;;;30.00;37.30;;;;;;4165031;28;20271;-54
2020/12/07 10:01:17;;;;;;;2.30;1.60;;;29.90;37.30;;;;;;4163001;28;20044;-50
2020/12/07 10:03:19;;;;;;;3.92;2.13;;;29.90;37.30;;;;;;4160274;28;20037;-52
2020/12/07 10:05:21;;;;;;;2.45;1.77;;;29.90;37.30;;;;;;4165434;28;20060;-52
2020/12/07 10:07:25;;;;;;;2.63;1.67;;;29.90;37.40;;;;;;4166592;28;20041;-57
2020/12/07 10:09:27;;;;;;;2.92;2.05;;;29.80;37.40;;;;;;4161347;28;20067;-49
2020/12/07 10:11:29;;;;;;;4.15;2.10;;;29.80;37.50;;;;;;4160531;28;20032;-52
2020/12/07 10:13:31;;;;;;;3.07;2.00;;;29.80;37.40;;;;;;4154552;28;20127;-54
2020/12/07 10:15:33;;;;;;;2.30;1.80;;;29.80;37.40;;;;;;4158479;28;20044;-53
2020/12/07 10:17:36;;;;;;;2.43;1.90;;;29.80;37.30;;;;;;4161483;28;20061;-52
2020/12/07 10:19:38;;;;;;;2.83;1.80;;;29.80;37.40;;;;;;4158866;28;20049;-50
2020/12/07 10:21:41;;;;;;;2.70;2.07;;;29.80;37.40;;;;;;4162423;28;20096;-49
2020/12/07 10:23:43;;;;;;;2.65;2.05;;;29.70;37.20;;;;;;4155871;28;20416;-48
2020/12/07 10:25:52;;;;;;;2.97;2.00;;;29.70;37.30;;;;;;4155783;28;20068;-50
2020/12/07 10:27:54;;;;;;;3.33;2.00;;;29.70;37.30;;;;;;4156110;28;20057;-50
2020/12/07 10:29:56;;;;;;;3.20;1.95;;;29.70;37.00;;;;;;4156266;28;20122;-50
2020/12/07 10:31:58;;;;;;;2.65;1.95;;;29.70;37.00;;;;;;4155497;28;20033;-51
2020/12/07 10:34:00;;;;;;;2.88;1.85;;;29.70;37.20;;;;;;4164017;28;20033;-50
2020/12/07 10:36:02;;;;;;;2.93;1.80;;;29.70;37.10;;;;;;4154818;28;20120;-54
2020/12/07 10:38:05;;;;;;;3.53;2.30;;;29.60;37.20;;;;;;4156420;28;21252;-54
2020/12/07 10:40:07;;;;;;;2.58;1.70;;;29.60;37.40;;;;;;4159765;28;20044;-49
2020/12/07 10:42:09;;;;;;;2.70;1.80;;;29.60;36.90;;;;;;4151953;28;20069;-52
2020/12/07 10:44:11;;;;;;;2.67;2.07;;;29.60;37.00;;;;;;4160626;28;20025;-48
2020/12/07 10:46:14;;;;;;;2.30;1.70;;;29.60;37.10;;;;;;4159834;28;20140;-47
2020/12/07 10:48:16;;;;;;;3.00;1.88;;;29.60;37.10;;;;;;4157070;28;20431;-49
2020/12/07 10:50:18;;;;;;;3.10;1.80;;;29.60;37.10;;;;;;4161154;28;20029;-51
2020/12/07 10:52:21;;;;;;;2.45;1.50;;;29.50;36.80;;;;;;4156988;28;20041;-51
2020/12/07 10:54:23;;;;;;;2.60;1.70;;;29.50;36.80;;;;;;4153434;28;20124;-49
2020/12/07 10:56:26;;;;;;;3.63;1.57;;;29.50;36.80;;;;;;4159751;28;20044;-50
2020/12/07 10:58:28;;;;;;;2.57;1.80;;;29.40;36.70;;;;;;4164792;28;20279;-48
2020/12/07 11:00:30;;;;;;;4.40;1.98;;;29.40;36.80;;;;;;4176245;28;20269;-52
2020/12/07 11:02:33;;;;;;;3.38;1.65;;;29.40;36.60;;;;;;4169828;28;20046;-57
2020/12/07 11:04:35;;;;;;;2.92;1.73;;;29.40;36.70;;;;;;4166465;28;20128;-52
2020/12/07 11:06:44;;;;;;;3.20;1.60;;;29.40;36.70;;;;;;4164378;28;20045;-52
2020/12/07 11:08:53;;;;;;;3.15;1.67;;;29.40;36.90;;;;;;4172039;28;20025;-54
2020/12/07 11:10:58;;;;;;;2.42;1.70;;;29.30;36.80;;;;;;4162969;28;20108;-52
2020/12/07 11:13:05;;;;;;;3.55;1.70;;;29.30;36.60;;;;;;4158805;28;20044;-52
2020/12/07 11:15:07;;;;;;;2.90;1.70;;;29.30;36.50;;;;;;4155000;28;20190;-53
2020/12/07 11:17:09;;;;;;;3.65;1.60;;;29.30;36.70;;;;;;4157866;28;20353;-53
2020/12/07 11:19:11;;;;;;;2.95;1.75;;;29.30;36.70;;;;;;4158007;28;20029;-51